Time;durP1;ratioP1;P1;durP2;ratioP2;P2;SDS_P1;SDS_P2;PMS_P1;PMS_P2;Temp;Humidity;BMP_temperature;BMP_pressure;BME280_temperature;BME280_humidity;BME280_pressure;Samples;Min_cycle;Max_cycle;Signal;HPM_P1;HPM_P2
2023/12/25 00:01:18;;;;;;;6.25;5.95;;;;;;;;;;4962408;28;20053;-80
2023/12/25 00:03:44;;;;;;;6.18;5.68;;;;;;;;;;4965571;28;20034;-78
2023/12/25 00:06:10;;;;;;;5.95;5.57;;;;;;;;;;4975420;28;20138;-80
2023/12/25 00:08:36;;;;;;;5.88;5.50;;;;;;;;;;4973226;28;20027;-80
2023/12/25 00:11:02;;;;;;;5.68;5.35;;;;;;;;;;4969060;28;20507;-79
2023/12/25 00:13:28;;;;;;;6.03;5.72;;;;;;;;;;4970973;28;20038;-79
2023/12/25 00:15:54;;;;;;;5.57;5.28;;;;;;;;;;4935463;28;20461;-78
2023/12/25 00:18:20;;;;;;;6.20;5.80;;;;;;;;;;4972892;28;20022;-81
2023/12/25 00:20:46;;;;;;;6.20;5.90;;;;;;;;;;4968222;28;20031;-79
2023/12/25 00:23:12;;;;;;;6.38;5.97;;;;;;;;;;4965229;28;20034;-78
2023/12/25 00:25:39;;;;;;;5.60;5.30;;;;;;;;;;4967657;28;20694;-80
2023/12/25 00:28:05;;;;;;;6.53;6.13;;;;;;;;;;4976568;28;20122;-79
2023/12/25 00:30:31;;;;;;;5.82;5.53;;;;;;;;;;4972798;28;20498;-79
2023/12/25 00:32:57;;;;;;;5.95;5.65;;;;;;;;;;4978360;28;20045;-80
2023/12/25 00:35:26;;;;;;;6.00;5.70;;;;;;;;;;4961288;28;20038;-77
2023/12/25 00:37:52;;;;;;;6.20;5.80;;;;;;;;;;4953936;28;20027;-79
2023/12/25 00:40:19;;;;;;;5.88;5.57;;;;;;;;;;4969245;28;20033;-78
2023/12/25 00:42:45;;;;;;;6.15;5.75;;;;;;;;;;4935755;28;20035;-78
2023/12/25 00:45:10;;;;;;;5.82;5.53;;;;;;;;;;4968255;28;20721;-81
2023/12/25 00:47:36;;;;;;;5.97;5.68;;;;;;;;;;4955473;28;20778;-80
2023/12/25 00:50:02;;;;;;;6.60;6.13;;;;;;;;;;4963530;28;20132;-77
2023/12/25 00:52:28;;;;;;;6.15;5.85;;;;;;;;;;4977541;28;20101;-81
2023/12/25 00:54:54;;;;;;;6.20;5.70;;;;;;;;;;4946564;28;20034;-80
2023/12/25 00:57:21;;;;;;;6.20;5.80;;;;;;;;;;4966678;28;20626;-80
2023/12/25 00:59:47;;;;;;;5.80;5.50;;;;;;;;;;4952620;28;20031;-77
2023/12/25 01:02:17;;;;;;;6.25;5.95;;;;;;;;;;4967399;28;20042;-79
2023/12/25 01:04:43;;;;;;;6.00;5.70;;;;;;;;;;4965786;28;20073;-79
2023/12/25 01:07:09;;;;;;;6.05;5.70;;;;;;;;;;4965883;28;20077;-80
2023/12/25 01:09:35;;;;;;;5.70;5.40;;;;;;;;;;4928182;28;20390;-79
2023/12/25 01:12:01;;;;;;;6.13;5.72;;;;;;;;;;4968940;28;20051;-80
2023/12/25 01:14:27;;;;;;;6.15;5.78;;;;;;;;;;4942596;28;20030;-78
2023/12/25 01:16:53;;;;;;;6.47;5.97;;;;;;;;;;4964942;28;20066;-78
2023/12/25 01:19:19;;;;;;;6.07;5.78;;;;;;;;;;4958090;28;20046;-81
2023/12/25 01:21:44;;;;;;;6.25;5.90;;;;;;;;;;4957267;28;20042;-80
2023/12/25 01:24:10;;;;;;;5.88;5.57;;;;;;;;;;4948314;28;20070;-80
2023/12/25 01:26:36;;;;;;;5.50;5.20;;;;;;;;;;4942893;28;20074;-80
2023/12/25 01:29:02;;;;;;;5.55;5.25;;;;;;;;;;4947706;28;20089;-79
2023/12/25 01:31:27;;;;;;;6.18;5.75;;;;;;;;;;4947111;28;20563;-80
2023/12/25 01:33:53;;;;;;;6.20;5.85;;;;;;;;;;4961892;28;20046;-79
2023/12/25 01:36:18;;;;;;;5.55;5.25;;;;;;;;;;4951069;28;20023;-80
2023/12/25 01:38:44;;;;;;;6.10;5.30;;;;;;;;;;4933588;28;20050;-80
2023/12/25 01:41:09;;;;;;;6.00;5.60;;;;;;;;;;4947645;28;20046;-80
2023/12/25 01:43:35;;;;;;;5.80;5.40;;;;;;;;;;4967386;28;20074;-80
2023/12/25 01:46:01;;;;;;;5.88;5.57;;;;;;;;;;4948205;28;20057;-80
2023/12/25 01:48:27;;;;;;;6.22;5.80;;;;;;;;;;4945818;28;20750;-80
2023/12/25 01:50:56;;;;;;;5.97;5.50;;;;;;;;;;4930250;29;20609;-80
2023/12/25 01:53:23;;;;;;;6.43;6.03;;;;;;;;;;4946868;28;20095;-81
2023/12/25 01:55:50;;;;;;;5.70;5.32;;;;;;;;;;4956080;28;20046;-79
2023/12/25 01:58:16;;;;;;;6.00;5.70;;;;;;;;;;4961601;28;20037;-79
2023/12/25 02:00:41;;;;;;;5.40;5.15;;;;;;;;;;4969668;28;20035;-80
2023/12/25 02:03:07;;;;;;;5.93;5.63;;;;;;;;;;4952730;28;20035;-81
2023/12/25 02:05:32;;;;;;;6.25;5.95;;;;;;;;;;4953331;28;20039;-79
2023/12/25 02:07:59;;;;;;;5.38;5.07;;;;;;;;;;4966727;28;20501;-81
2023/12/25 02:10:29;;;;;;;6.20;5.82;;;;;;;;;;4962118;28;20031;-79
2023/12/25 02:12:55;;;;;;;6.28;5.68;;;;;;;;;;4961764;28;20147;-81
2023/12/25 02:15:21;;;;;;;5.97;5.68;;;;;;;;;;4961585;28;20126;-80
2023/12/25 02:17:50;;;;;;;6.22;5.78;;;;;;;;;;4947826;28;20034;-79
2023/12/25 02:20:17;;;;;;;6.00;5.70;;;;;;;;;;4964792;28;20034;-80
2023/12/25 02:22:44;;;;;;;6.10;5.80;;;;;;;;;;4945855;28;20138;-80
2023/12/25 02:25:24;;;;;;;6.18;5.88;;;;;;;;;;4966486;28;20114;-80
2023/12/25 02:27:51;;;;;;;6.35;5.95;;;;;;;;;;4965665;28;20046;-80
2023/12/25 02:30:17;;;;;;;5.78;5.47;;;;;;;;;;4963808;28;20047;-80
2023/12/25 02:32:42;;;;;;;5.65;5.35;;;;;;;;;;4965330;28;20045;-80
2023/12/25 02:35:08;;;;;;;6.00;5.60;;;;;;;;;;4965460;28;20031;-80
2023/12/25 02:37:34;;;;;;;5.60;5.30;;;;;;;;;;4949484;28;20802;-79
2023/12/25 02:39:59;;;;;;;5.82;5.53;;;;;;;;;;4968154;28;20532;-80
2023/12/25 02:42:25;;;;;;;6.20;5.70;;;;;;;;;;4962420;28;20405;-80
2023/12/25 02:44:50;;;;;;;5.65;5.25;;;;;;;;;;4956843;28;20065;-80
2023/12/25 02:47:16;;;;;;;5.65;5.35;;;;;;;;;;4941053;28;20035;-79
2023/12/25 02:49:41;;;;;;;6.05;5.65;;;;;;;;;;4966235;28;20057;-79
2023/12/25 02:52:07;;;;;;;6.03;5.63;;;;;;;;;;4953460;28;20035;-79
2023/12/25 02:54:32;;;;;;;6.05;5.65;;;;;;;;;;4951766;28;20038;-78
2023/12/25 02:56:58;;;;;;;5.88;5.57;;;;;;;;;;4946226;28;20028;-78
2023/12/25 02:59:24;;;;;;;5.60;5.30;;;;;;;;;;4958349;28;20050;-79
2023/12/25 03:01:49;;;;;;;5.78;5.47;;;;;;;;;;4959501;28;20046;-78
2023/12/25 03:04:15;;;;;;;6.22;5.88;;;;;;;;;;4967018;28;20041;-79
2023/12/25 03:06:40;;;;;;;5.97;5.68;;;;;;;;;;4963872;28;20061;-78
2023/12/25 03:09:06;;;;;;;6.22;5.82;;;;;;;;;;4954556;28;20046;-79
2023/12/25 03:11:31;;;;;;;5.50;5.20;;;;;;;;;;4968392;28;20109;-79
2023/12/25 03:13:57;;;;;;;6.13;5.72;;;;;;;;;;4957087;28;20043;-79
2023/12/25 03:16:22;;;;;;;5.90;5.60;;;;;;;;;;4945964;28;20037;-79
2023/12/25 03:18:48;;;;;;;6.80;6.40;;;;;;;;;;4960417;28;20630;-78
2023/12/25 03:21:13;;;;;;;6.40;6.10;;;;;;;;;;4935378;28;20058;-79
2023/12/25 03:23:39;;;;;;;6.40;5.97;;;;;;;;;;4959847;28;20156;-78
2023/12/25 03:26:05;;;;;;;6.35;5.88;;;;;;;;;;4965066;28;20042;-79
2023/12/25 03:28:30;;;;;;;5.97;5.68;;;;;;;;;;4964973;28;20069;-79
2023/12/25 03:30:56;;;;;;;5.88;5.57;;;;;;;;;;4946800;28;20035;-79
2023/12/25 03:33:21;;;;;;;5.80;5.50;;;;;;;;;;4960574;28;20061;-80
2023/12/25 03:35:47;;;;;;;6.13;5.78;;;;;;;;;;4964854;28;20123;-79
2023/12/25 03:38:13;;;;;;;5.63;5.32;;;;;;;;;;4967516;28;20155;-79
2023/12/25 03:40:39;;;;;;;5.68;5.38;;;;;;;;;;4967747;28;20082;-78
2023/12/25 03:43:05;;;;;;;5.82;5.32;;;;;;;;;;4962958;28;20042;-79
2023/12/25 03:45:31;;;;;;;6.05;5.75;;;;;;;;;;4945815;28;20034;-79
2023/12/25 03:47:57;;;;;;;6.38;5.85;;;;;;;;;;4963875;28;20049;-79
2023/12/25 03:50:23;;;;;;;6.10;5.70;;;;;;;;;;4964265;28;20215;-79
2023/12/25 03:52:48;;;;;;;5.82;5.53;;;;;;;;;;4955181;28;20026;-79
2023/12/25 03:55:14;;;;;;;5.70;5.40;;;;;;;;;;4966028;28;20034;-78
2023/12/25 03:57:41;;;;;;;6.38;5.93;;;;;;;;;;4930009;28;20118;-79
2023/12/25 04:00:07;;;;;;;6.45;5.95;;;;;;;;;;4950699;28;20113;-79
2023/12/25 04:02:39;;;;;;;6.20;5.80;;;;;;;;;;4963451;28;20495;-78
2023/12/25 04:05:06;;;;;;;6.20;5.72;;;;;;;;;;4975403;28;20125;-78
2023/12/25 04:07:33;;;;;;;5.90;5.57;;;;;;;;;;4962006;28;20053;-79
2023/12/25 04:09:59;;;;;;;6.20;5.82;;;;;;;;;;4944390;28;20039;-79
2023/12/25 04:12:25;;;;;;;6.22;5.82;;;;;;;;;;4962670;28;20126;-79
2023/12/25 04:14:50;;;;;;;5.70;5.40;;;;;;;;;;4960813;28;20117;-79
2023/12/25 04:17:17;;;;;;;5.85;5.45;;;;;;;;;;4949816;28;20030;-78
2023/12/25 04:19:43;;;;;;;6.00;5.70;;;;;;;;;;4962777;28;20692;-78
2023/12/25 04:22:08;;;;;;;5.60;5.30;;;;;;;;;;4963205;28;20039;-79
2023/12/25 04:24:34;;;;;;;5.80;5.50;;;;;;;;;;4962906;28;20034;-79
2023/12/25 04:26:59;;;;;;;6.15;5.85;;;;;;;;;;4952488;28;20595;-79
2023/12/25 04:29:25;;;;;;;5.57;5.28;;;;;;;;;;4954479;28;20034;-79
2023/12/25 04:31:51;;;;;;;5.70;5.40;;;;;;;;;;4971260;28;20046;-79
2023/12/25 04:34:17;;;;;;;6.15;5.63;;;;;;;;;;4963461;28;20505;-79
2023/12/25 04:36:42;;;;;;;6.20;5.80;;;;;;;;;;4948271;28;20042;-79
2023/12/25 04:39:08;;;;;;;6.32;5.90;;;;;;;;;;4963813;28;20031;-79
2023/12/25 04:41:33;;;;;;;5.80;5.50;;;;;;;;;;4963993;28;20592;-80
2023/12/25 04:43:59;;;;;;;5.90;5.60;;;;;;;;;;4969305;28;20934;-79
2023/12/25 04:46:25;;;;;;;6.07;5.78;;;;;;;;;;4980437;28;20050;-79
2023/12/25 04:48:51;;;;;;;5.70;5.40;;;;;;;;;;4998008;28;20042;-77
2023/12/25 04:51:16;;;;;;;5.53;5.22;;;;;;;;;;4970581;28;20049;-82
2023/12/25 04:53:42;;;;;;;6.05;5.75;;;;;;;;;;4965230;28;20038;-78
2023/12/25 04:56:11;;;;;;;6.15;5.85;;;;;;;;;;4937073;28;20085;-78
2023/12/25 04:58:37;;;;;;;6.25;5.85;;;;;;;;;;4961260;28;20037;-81
2023/12/25 05:01:04;;;;;;;6.10;5.60;;;;;;;;;;4946114;28;20058;-80
2023/12/25 05:03:30;;;;;;;5.75;5.45;;;;;;;;;;4946728;28;20069;-79
2023/12/25 05:05:56;;;;;;;6.13;5.82;;;;;;;;;;4961566;28;20027;-79
2023/12/25 05:08:22;;;;;;;6.10;5.70;;;;;;;;;;4962797;28;20042;-80
2023/12/25 05:10:49;;;;;;;5.70;5.40;;;;;;;;;;4927428;28;20390;-80
2023/12/25 05:13:14;;;;;;;6.00;5.70;;;;;;;;;;4962172;28;20657;-80
2023/12/25 05:15:40;;;;;;;6.05;5.75;;;;;;;;;;4944218;28;20046;-79
2023/12/25 05:18:06;;;;;;;6.18;5.88;;;;;;;;;;4965888;28;20145;-80
2023/12/25 05:20:32;;;;;;;6.10;5.80;;;;;;;;;;4962732;28;20050;-79
2023/12/25 05:22:58;;;;;;;6.10;5.70;;;;;;;;;;4962933;28;20030;-79
2023/12/25 05:25:23;;;;;;;6.18;5.88;;;;;;;;;;4960963;28;20068;-79
2023/12/25 05:27:49;;;;;;;6.15;5.85;;;;;;;;;;4962804;28;20125;-79
2023/12/25 05:30:14;;;;;;;6.18;5.80;;;;;;;;;;4944043;28;20042;-79
2023/12/25 05:32:40;;;;;;;5.97;5.68;;;;;;;;;;4964116;28;20050;-79
2023/12/25 05:35:06;;;;;;;5.80;5.50;;;;;;;;;;4965094;28;20717;-79
2023/12/25 05:37:32;;;;;;;6.00;5.70;;;;;;;;;;4962778;28;20039;-79
2023/12/25 05:39:57;;;;;;;5.78;5.47;;;;;;;;;;4965784;28;20031;-78
2023/12/25 05:42:23;;;;;;;6.20;5.80;;;;;;;;;;4964070;28;20122;-79
2023/12/25 05:44:49;;;;;;;6.00;5.70;;;;;;;;;;4960754;28;20043;-79
2023/12/25 05:47:14;;;;;;;6.10;5.70;;;;;;;;;;4965250;28;20034;-79
2023/12/25 05:49:40;;;;;;;6.40;6.10;;;;;;;;;;4968677;28;20656;-79
2023/12/25 05:52:06;;;;;;;5.88;5.57;;;;;;;;;;4963496;28;20089;-79
2023/12/25 05:54:31;;;;;;;5.97;5.68;;;;;;;;;;4963472;28;20039;-80
2023/12/25 05:56:58;;;;;;;5.95;5.65;;;;;;;;;;4965198;28;20101;-79
2023/12/25 05:59:23;;;;;;;6.80;5.97;;;;;;;;;;4964226;28;20034;-79
2023/12/25 06:01:49;;;;;;;5.93;5.63;;;;;;;;;;4962511;28;20045;-79
2023/12/25 06:04:14;;;;;;;5.88;5.57;;;;;;;;;;4957031;28;20682;-79
2023/12/25 06:06:40;;;;;;;6.13;5.72;;;;;;;;;;4962807;28;20045;-79
2023/12/25 06:09:07;;;;;;;6.32;6.00;;;;;;;;;;4965611;28;20125;-79
2023/12/25 06:11:35;;;;;;;;;;;;;;;;;;4964902;28;20048;-79
2023/12/25 06:14:01;;;;;;;5.82;5.53;;;;;;;;;;4969769;28;19914;-78
2023/12/25 06:16:26;;;;;;;6.18;5.88;;;;;;;;;;4967290;28;20035;-80
2023/12/25 06:18:52;;;;;;;5.90;5.60;;;;;;;;;;4945462;28;20043;-79
2023/12/25 06:21:17;;;;;;;6.30;5.90;;;;;;;;;;4966002;28;20354;-79
2023/12/25 06:23:43;;;;;;;6.00;5.70;;;;;;;;;;4951305;28;20046;-79
2023/12/25 06:26:09;;;;;;;6.18;5.88;;;;;;;;;;4961241;28;20047;-78
2023/12/25 06:28:34;;;;;;;5.90;5.60;;;;;;;;;;4967699;28;20167;-80
2023/12/25 06:31:00;;;;;;;5.93;5.63;;;;;;;;;;4947015;28;20047;-79
2023/12/25 06:33:25;;;;;;;6.32;6.03;;;;;;;;;;4963899;28;20042;-79
2023/12/25 06:35:51;;;;;;;6.00;5.68;;;;;;;;;;4964399;28;20038;-79
2023/12/25 06:38:16;;;;;;;6.45;5.93;;;;;;;;;;4956086;28;20053;-80
2023/12/25 06:40:42;;;;;;;5.80;5.50;;;;;;;;;;4968819;28;20099;-79
2023/12/25 06:43:08;;;;;;;5.88;5.57;;;;;;;;;;4951280;28;21230;-79
2023/12/25 06:45:34;;;;;;;6.45;6.15;;;;;;;;;;4971080;28;20039;-79
2023/12/25 06:48:00;;;;;;;6.07;5.68;;;;;;;;;;4978123;28;20296;-79
2023/12/25 06:50:26;;;;;;;6.13;5.75;;;;;;;;;;4978663;28;20034;-79
2023/12/25 06:52:51;;;;;;;6.07;5.78;;;;;;;;;;4971991;28;20342;-79
2023/12/25 06:55:17;;;;;;;6.20;5.80;;;;;;;;;;4978885;28;20026;-79
2023/12/25 06:57:43;;;;;;;6.43;6.13;;;;;;;;;;4975232;28;20035;-78
2023/12/25 07:00:11;;;;;;;6.65;6.25;;;;;;;;;;4981716;28;20035;-79
2023/12/25 07:02:37;;;;;;;6.10;5.80;;;;;;;;;;4972544;28;20035;-79
2023/12/25 07:05:04;;;;;;;6.65;6.25;;;;;;;;;;4981616;28;20023;-79
2023/12/25 07:07:30;;;;;;;6.25;5.95;;;;;;;;;;4992698;28;20381;-78
2023/12/25 07:09:57;;;;;;;5.75;5.35;;;;;;;;;;4961221;28;20134;-81
2023/12/25 07:12:25;;;;;;;6.10;5.80;;;;;;;;;;4965941;28;20138;-80
2023/12/25 07:14:51;;;;;;;6.17;5.87;;;;;;;;;;4959618;28;20449;-80
2023/12/25 07:17:17;;;;;;;5.80;5.50;;;;;;;;;;4967884;28;20045;-79
2023/12/25 07:19:43;;;;;;;5.82;5.53;;;;;;;;;;4959940;28;20077;-79
2023/12/25 07:22:11;;;;;;;6.10;5.70;;;;;;;;;;4966153;28;20034;-79
2023/12/25 07:24:37;;;;;;;6.10;5.75;;;;;;;;;;4967138;28;20209;-79
2023/12/25 07:27:03;;;;;;;6.63;6.22;;;;;;;;;;4965429;28;20043;-79
2023/12/25 07:29:30;;;;;;;6.00;5.60;;;;;;;;;;4964483;28;20046;-79
2023/12/25 07:31:57;;;;;;;6.80;6.30;;;;;;;;;;4962729;28;20046;-79
2023/12/25 07:34:22;;;;;;;6.35;6.05;;;;;;;;;;4945517;28;20078;-80
2023/12/25 07:36:48;;;;;;;7.10;6.70;;;;;;;;;;4955037;28;20107;-79
2023/12/25 07:39:14;;;;;;;6.90;6.47;;;;;;;;;;4966374;28;20041;-79
2023/12/25 07:41:42;;;;;;;6.57;6.18;;;;;;;;;;4948042;28;20042;-79
2023/12/25 07:44:08;;;;;;;6.97;6.57;;;;;;;;;;4962114;28;20126;-79
2023/12/25 07:46:33;;;;;;;7.05;6.55;;;;;;;;;;4946251;28;20118;-80
2023/12/25 07:48:59;;;;;;;7.15;6.65;;;;;;;;;;4957445;28;20042;-78
2023/12/25 07:51:26;;;;;;;6.90;6.30;;;;;;;;;;4947781;28;20084;-79
2023/12/25 07:53:52;;;;;;;7.20;6.47;;;;;;;;;;4962049;28;20047;-79
2023/12/25 07:56:17;;;;;;;7.25;6.65;;;;;;;;;;4964554;28;20031;-79
2023/12/25 07:58:43;;;;;;;7.50;6.97;;;;;;;;;;4963087;28;20038;-78
2023/12/25 08:01:10;;;;;;;6.47;6.07;;;;;;;;;;4969409;28;20034;-79
2023/12/25 08:03:36;;;;;;;6.78;6.38;;;;;;;;;;4940423;28;20042;-79
2023/12/25 08:06:02;;;;;;;6.90;6.30;;;;;;;;;;4959230;28;20034;-78
2023/12/25 08:08:28;;;;;;;6.47;6.07;;;;;;;;;;4959779;28;20707;-78
2023/12/25 08:10:53;;;;;;;7.03;6.63;;;;;;;;;;4962608;28;20088;-78
2023/12/25 08:13:19;;;;;;;6.63;6.22;;;;;;;;;;4959922;28;20690;-79
2023/12/25 08:15:45;;;;;;;6.80;6.40;;;;;;;;;;4960975;28;20436;-78
2023/12/25 08:18:11;;;;;;;7.22;6.72;;;;;;;;;;4956475;28;20049;-78
2023/12/25 08:20:36;;;;;;;6.35;6.05;;;;;;;;;;4962191;28;20114;-79
2023/12/25 08:23:02;;;;;;;6.95;6.55;;;;;;;;;;4947075;28;20607;-78
2023/12/25 08:25:28;;;;;;;7.45;6.93;;;;;;;;;;4965019;28;20030;-79
2023/12/25 08:27:54;;;;;;;6.15;5.85;;;;;;;;;;4947231;28;20057;-78
2023/12/25 08:30:20;;;;;;;6.90;6.50;;;;;;;;;;4966806;28;20046;-78
2023/12/25 08:32:46;;;;;;;6.88;6.38;;;;;;;;;;4964467;28;20041;-81
2023/12/25 08:35:11;;;;;;;6.60;6.20;;;;;;;;;;4942505;28;20031;-80
2023/12/25 08:37:37;;;;;;;7.47;6.88;;;;;;;;;;4964032;28;20074;-80
2023/12/25 08:40:03;;;;;;;6.53;6.13;;;;;;;;;;4962496;28;20105;-80
2023/12/25 08:42:30;;;;;;;6.72;6.22;;;;;;;;;;4962651;28;20031;-79
2023/12/25 08:44:56;;;;;;;6.57;6.18;;;;;;;;;;4952140;28;20074;-79
2023/12/25 08:47:22;;;;;;;6.80;6.38;;;;;;;;;;4965626;28;20424;-79
2023/12/25 08:49:48;;;;;;;6.80;6.35;;;;;;;;;;4961620;28;20049;-80
2023/12/25 08:52:14;;;;;;;6.68;6.28;;;;;;;;;;4948202;28;20038;-79
2023/12/25 08:54:39;;;;;;;6.78;6.38;;;;;;;;;;4958896;28;20039;-80
2023/12/25 08:57:05;;;;;;;6.50;6.05;;;;;;;;;;4955366;28;20062;-80
2023/12/25 08:59:31;;;;;;;6.60;6.20;;;;;;;;;;4958974;28;20336;-79
2023/12/25 09:01:56;;;;;;;6.72;6.32;;;;;;;;;;4948188;28;20042;-79
2023/12/25 09:04:22;;;;;;;7.18;6.78;;;;;;;;;;4966175;28;20059;-79
2023/12/25 09:06:47;;;;;;;6.72;6.32;;;;;;;;;;4965865;28;20100;-79
2023/12/25 09:09:13;;;;;;;6.05;5.70;;;;;;;;;;4960920;28;20034;-78
2023/12/25 09:11:39;;;;;;;6.20;5.80;;;;;;;;;;4963560;28;20551;-79
2023/12/25 09:14:04;;;;;;;6.25;5.85;;;;;;;;;;4938837;28;20070;-78
2023/12/25 09:16:30;;;;;;;6.50;6.10;;;;;;;;;;4962735;28;20506;-78
2023/12/25 09:18:56;;;;;;;6.07;5.68;;;;;;;;;;4960788;28;20038;-79
2023/12/25 09:21:21;;;;;;;6.03;5.72;;;;;;;;;;4952963;28;20820;-79
2023/12/25 09:23:48;;;;;;;5.60;5.30;;;;;;;;;;4959429;28;20047;-79
2023/12/25 09:26:20;;;;;;;5.88;5.57;;;;;;;;;;4964330;28;20045;-79
2023/12/25 09:28:46;;;;;;;6.90;6.30;;;;;;;;;;4967831;28;20053;-79
2023/12/25 09:31:12;;;;;;;6.60;6.05;;;;;;;;;;4977991;28;20095;-79
2023/12/25 09:33:39;;;;;;;6.50;5.97;;;;;;;;;;4973201;28;20062;-79
2023/12/25 09:36:06;;;;;;;6.63;6.22;;;;;;;;;;4968781;28;20093;-79
2023/12/25 09:38:31;;;;;;;7.13;6.53;;;;;;;;;;4984717;28;20039;-79
2023/12/25 09:40:57;;;;;;;6.65;6.25;;;;;;;;;;4951222;28;20081;-79
2023/12/25 09:43:23;;;;;;;6.25;5.80;;;;;;;;;;4962697;28;20527;-80
2023/12/25 09:45:49;;;;;;;6.35;5.95;;;;;;;;;;4961989;28;20096;-79
2023/12/25 09:48:17;;;;;;;7.18;6.68;;;;;;;;;;4959320;28;20038;-79
2023/12/25 09:50:43;;;;;;;7.15;6.65;;;;;;;;;;4969175;28;20494;-79
2023/12/25 09:53:09;;;;;;;6.82;6.43;;;;;;;;;;4964448;28;20664;-79
2023/12/25 09:55:34;;;;;;;7.65;7.05;;;;;;;;;;4959192;28;20031;-79
2023/12/25 09:58:04;;;;;;;6.93;6.53;;;;;;;;;;4959884;28;20122;-79
2023/12/25 10:00:30;;;;;;;6.80;6.30;;;;;;;;;;4970119;28;20038;-79
2023/12/25 10:02:57;;;;;;;6.20;5.90;;;;;;;;;;4967120;28;20377;-79
2023/12/25 10:05:22;;;;;;;6.30;6.00;;;;;;;;;;4965608;28;20042;-78
2023/12/25 10:07:48;;;;;;;6.57;6.18;;;;;;;;;;4955980;28;20413;-77
2023/12/25 10:10:13;;;;;;;7.10;6.40;;;;;;;;;;4963071;28;20042;-78
2023/12/25 10:12:45;;;;;;;6.43;6.03;;;;;;;;;;4970061;28;20046;-78
2023/12/25 10:15:14;;;;;;;6.50;5.95;;;;;;;;;;4955193;28;20073;-78
2023/12/25 10:17:39;;;;;;;6.40;6.00;;;;;;;;;;4965498;28;20528;-79
2023/12/25 10:20:08;;;;;;;7.22;6.72;;;;;;;;;;4959640;28;20124;-78
2023/12/25 10:22:37;;;;;;;6.80;6.40;;;;;;;;;;4961553;28;20038;-78
2023/12/25 10:25:13;;;;;;;8.27;7.35;;;;;;;;;;4957235;28;20553;-78
2023/12/25 10:27:42;;;;;;;6.63;6.22;;;;;;;;;;4956983;28;20594;-78
2023/12/25 10:30:15;;;;;;;7.03;6.63;;;;;;;;;;4963053;28;20536;-78
2023/12/25 10:32:41;;;;;;;6.50;6.10;;;;;;;;;;4958699;28;20038;-78
2023/12/25 10:35:18;;;;;;;6.78;6.38;;;;;;;;;;4955568;28;20117;-78
2023/12/25 10:37:45;;;;;;;6.82;6.43;;;;;;;;;;4960709;28;20042;-77
2023/12/25 10:40:22;;;;;;;6.60;6.20;;;;;;;;;;4948419;28;20035;-79
2023/12/25 10:42:50;;;;;;;6.30;6.00;;;;;;;;;;4960533;28;20034;-79
2023/12/25 10:45:21;;;;;;;6.57;6.18;;;;;;;;;;4962843;28;20498;-79
2023/12/25 10:47:52;;;;;;;6.55;6.15;;;;;;;;;;4957618;28;20042;-78
2023/12/25 10:50:24;;;;;;;6.97;6.50;;;;;;;;;;4965600;28;20692;-78
2023/12/25 10:52:51;;;;;;;6.38;5.97;;;;;;;;;;4960382;28;20049;-78
2023/12/25 10:55:43;;;;;;;6.90;6.40;;;;;;;;;;4962208;28;20084;-78
2023/12/25 10:58:12;;;;;;;6.97;6.50;;;;;;;;;;4958378;28;20121;-79
2023/12/25 11:00:39;;;;;;;;;;;;;;;;;;4962138;28;20117;-77
2023/12/25 11:03:05;;;;;;;7.00;6.50;;;;;;;;;;4964190;28;19918;-77
2023/12/25 11:05:31;;;;;;;7.18;6.70;;;;;;;;;;4956095;28;20035;-77
2023/12/25 11:08:00;;;;;;;7.13;6.72;;;;;;;;;;4959345;28;20050;-78
2023/12/25 11:10:29;;;;;;;7.43;6.93;;;;;;;;;;4944848;28;20034;-79
2023/12/25 11:12:56;;;;;;;7.30;6.80;;;;;;;;;;4957235;28;20066;-78
2023/12/25 11:15:23;;;;;;;7.60;7.10;;;;;;;;;;4972067;28;20116;-81
2023/12/25 11:17:52;;;;;;;7.78;7.38;;;;;;;;;;4971796;28;20089;-81
2023/12/25 11:20:18;;;;;;;7.28;6.78;;;;;;;;;;4972015;28;20042;-81
2023/12/25 11:22:47;;;;;;;6.50;6.20;;;;;;;;;;4963873;28;20123;-82
2023/12/25 11:25:14;;;;;;;;;;;;;;;;;;4970577;28;20034;-81
2023/12/25 11:27:42;;;;;;;7.40;7.00;;;;;;;;;;4949740;28;20743;-81
2023/12/25 11:30:12;;;;;;;6.90;6.50;;;;;;;;;;4964533;28;20043;-79
2023/12/25 11:32:40;;;;;;;7.57;7.07;;;;;;;;;;4966405;28;20042;-80
2023/12/25 11:35:07;;;;;;;6.93;6.57;;;;;;;;;;4960471;28;20121;-80
2023/12/25 11:37:34;;;;;;;6.72;6.32;;;;;;;;;;4959242;28;20046;-80
2023/12/25 11:40:05;;;;;;;6.90;6.50;;;;;;;;;;4950540;28;20076;-81
2023/12/25 11:42:36;;;;;;;6.70;6.40;;;;;;;;;;4973428;28;20046;-81
2023/12/25 11:45:04;;;;;;;6.85;6.38;;;;;;;;;;4974470;28;20718;-82
2023/12/25 11:47:39;;;;;;;6.93;6.53;;;;;;;;;;4966620;28;20063;-80
2023/12/25 11:50:07;;;;;;;7.03;6.63;;;;;;;;;;4962200;28;20042;-82
2023/12/25 11:52:53;;;;;;;7.15;6.65;;;;;;;;;;4965711;28;20045;-81
2023/12/25 11:55:21;;;;;;;6.68;6.28;;;;;;;;;;4972744;28;20042;-81
2023/12/25 11:57:47;;;;;;;6.85;6.38;;;;;;;;;;4965722;28;20630;-81
2023/12/25 12:00:25;;;;;;;7.05;6.65;;;;;;;;;;4955191;28;20704;-80
2023/12/25 12:02:51;;;;;;;6.93;6.53;;;;;;;;;;4963095;28;20061;-80
2023/12/25 12:05:18;;;;;;;7.00;6.60;;;;;;;;;;4966326;28;20041;-81
2023/12/25 12:07:44;;;;;;;6.57;6.18;;;;;;;;;;4969945;28;20085;-81
2023/12/25 12:10:12;;;;;;;6.60;6.20;;;;;;;;;;4966310;28;20055;-79
2023/12/25 12:12:40;;;;;;;6.38;5.97;;;;;;;;;;4968348;28;20581;-80
2023/12/25 12:15:06;;;;;;;6.78;6.40;;;;;;;;;;4942027;28;20038;-80
2023/12/25 12:17:32;;;;;;;6.72;6.32;;;;;;;;;;4974686;28;20041;-81
2023/12/25 12:19:59;;;;;;;6.45;6.15;;;;;;;;;;4973286;28;20038;-81
2023/12/25 12:22:25;;;;;;;6.80;6.40;;;;;;;;;;4970105;28;20103;-82
2023/12/25 12:24:51;;;;;;;6.43;6.03;;;;;;;;;;4964560;28;20684;-81
2023/12/25 12:27:20;;;;;;;6.70;6.30;;;;;;;;;;4971096;28;20034;-82
2023/12/25 12:29:49;;;;;;;7.32;6.93;;;;;;;;;;4971127;28;20046;-80
2023/12/25 12:32:16;;;;;;;7.35;6.95;;;;;;;;;;4965990;28;20049;-81
2023/12/25 12:34:43;;;;;;;7.00;6.60;;;;;;;;;;4965165;28;20612;-82
2023/12/25 12:37:09;;;;;;;7.47;6.50;;;;;;;;;;4955468;28;20408;-83
2023/12/25 12:39:36;;;;;;;6.70;6.30;;;;;;;;;;4966238;28;20681;-82
2023/12/25 12:42:08;;;;;;;6.80;6.40;;;;;;;;;;4969228;28;20057;-80
2023/12/25 12:44:34;;;;;;;6.43;5.85;;;;;;;;;;4973084;28;20532;-81
2023/12/25 12:46:59;;;;;;;6.15;5.75;;;;;;;;;;4957753;28;20065;-81
2023/12/25 12:49:25;;;;;;;6.25;5.90;;;;;;;;;;4968040;28;20116;-81
2023/12/25 12:51:53;;;;;;;6.40;5.90;;;;;;;;;;4950188;28;20050;-82
2023/12/25 12:54:18;;;;;;;5.50;5.20;;;;;;;;;;4965584;28;20038;-82
2023/12/25 12:56:44;;;;;;;5.07;4.88;;;;;;;;;;4951506;28;20035;-81
2023/12/25 12:59:10;;;;;;;6.10;5.63;;;;;;;;;;4935576;28;20041;-81
2023/12/25 13:01:36;;;;;;;6.40;6.00;;;;;;;;;;4944161;28;20039;-80
2023/12/25 13:04:01;;;;;;;5.35;5.15;;;;;;;;;;4967282;28;20038;-80
2023/12/25 13:06:27;;;;;;;5.22;5.03;;;;;;;;;;4948626;28;20038;-81
2023/12/25 13:08:53;;;;;;;6.40;6.10;;;;;;;;;;4974308;28;20046;-81
2023/12/25 13:11:22;;;;;;;6.93;6.53;;;;;;;;;;4964789;28;20034;-81
2023/12/25 13:13:49;;;;;;;6.43;6.13;;;;;;;;;;4967406;28;20050;-81
2023/12/25 13:16:15;;;;;;;6.38;6.07;;;;;;;;;;4964058;28;20037;-81
2023/12/25 13:18:42;;;;;;;6.15;5.85;;;;;;;;;;4966064;28;20068;-80
2023/12/25 13:21:07;;;;;;;6.55;6.05;;;;;;;;;;4950136;28;20421;-82
2023/12/25 13:23:35;;;;;;;7.60;5.65;;;;;;;;;;4967062;28;20047;-80
2023/12/25 13:26:00;;;;;;;6.63;6.13;;;;;;;;;;4952177;28;20328;-79
2023/12/25 13:28:26;;;;;;;6.60;6.20;;;;;;;;;;4953864;28;20110;-80
2023/12/25 13:30:52;;;;;;;6.25;5.95;;;;;;;;;;4964280;28;20031;-81
2023/12/25 13:33:20;;;;;;;6.03;5.72;;;;;;;;;;4967597;28;20059;-80
2023/12/25 13:35:45;;;;;;;6.45;6.15;;;;;;;;;;4966496;28;20085;-80
2023/12/25 13:38:11;;;;;;;6.32;6.03;;;;;;;;;;4961629;28;20568;-80
2023/12/25 13:40:36;;;;;;;6.38;6.07;;;;;;;;;;4954246;28;20508;-80
2023/12/25 13:43:02;;;;;;;6.88;6.47;;;;;;;;;;4970886;28;20038;-79
2023/12/25 13:45:29;;;;;;;6.22;5.75;;;;;;;;;;4953300;28;20035;-80
2023/12/25 13:47:54;;;;;;;6.25;5.95;;;;;;;;;;4956725;28;20038;-80
2023/12/25 13:50:20;;;;;;;6.57;6.18;;;;;;;;;;4969026;28;20038;-80
2023/12/25 13:52:46;;;;;;;6.20;5.80;;;;;;;;;;4970713;28;20055;-80
2023/12/25 13:55:11;;;;;;;6.30;5.97;;;;;;;;;;4962794;28;20034;-80
2023/12/25 13:57:37;;;;;;;6.35;6.05;;;;;;;;;;4958991;28;20035;-80
2023/12/25 14:00:05;;;;;;;6.60;6.30;;;;;;;;;;4964330;28;20043;-80
2023/12/25 14:02:34;;;;;;;6.18;5.88;;;;;;;;;;4970568;28;20040;-80
2023/12/25 14:05:00;;;;;;;6.90;6.50;;;;;;;;;;4970747;28;20031;-79
2023/12/25 14:07:26;;;;;;;6.30;5.90;;;;;;;;;;4978772;28;20057;-80
2023/12/25 14:09:52;;;;;;;6.57;6.28;;;;;;;;;;4984181;28;20090;-80
2023/12/25 14:12:18;;;;;;;6.00;5.70;;;;;;;;;;4980278;28;20122;-79
2023/12/25 14:14:47;;;;;;;6.15;5.85;;;;;;;;;;4983272;28;20042;-80
2023/12/25 14:17:13;;;;;;;5.93;5.63;;;;;;;;;;4980766;28;20045;-79
2023/12/25 14:19:38;;;;;;;6.22;5.93;;;;;;;;;;4963108;28;20039;-80
2023/12/25 14:22:04;;;;;;;6.90;6.28;;;;;;;;;;4980881;28;20062;-80
2023/12/25 14:24:35;;;;;;;6.30;6.00;;;;;;;;;;4996446;28;20110;-80
2023/12/25 14:27:05;;;;;;;6.35;5.95;;;;;;;;;;4986842;28;20158;-79
2023/12/25 14:29:31;;;;;;;;;;;;;;;;;;4952556;28;20806;-80
2023/12/25 14:31:56;;;;;;;6.20;5.90;;;;;;;;;;4981049;28;19921;-80
2023/12/25 14:34:22;;;;;;;5.97;5.68;;;;;;;;;;4970153;28;20041;-80
2023/12/25 14:36:47;;;;;;;6.53;6.13;;;;;;;;;;4967349;28;20615;-81
2023/12/25 14:39:13;;;;;;;6.90;6.50;;;;;;;;;;4971693;28;20393;-82